Time;durP1;ratioP1;P1;durP2;ratioP2;P2;SDS_P1;SDS_P2;PMS_P1;PMS_P2;Temp;Humidity;BMP_temperature;BMP_pressure;BME280_temperature;BME280_humidity;BME280_pressure;Samples;Min_cycle;Max_cycle;Signal;HPM_P1;HPM_P2
2022/07/06 00:01:38;;;;;;;2.97;1.30;;;15.60;94.50;;;;;;5089421;28;20266;-75
2022/07/06 00:04:05;;;;;;;3.13;1.77;;;15.60;94.50;;;;;;5094312;28;20574;-75
2022/07/06 00:06:31;;;;;;;4.67;1.90;;;15.60;94.60;;;;;;5094814;28;20434;-75
2022/07/06 00:08:57;;;;;;;10.13;1.73;;;15.60;94.60;;;;;;5094156;28;20458;-75
2022/07/06 00:11:23;;;;;;;3.97;1.03;;;15.60;94.60;;;;;;5093267;28;20445;-76
2022/07/06 00:13:49;;;;;;;4.53;2.10;;;15.50;94.90;;;;;;5093666;28;20414;-76
2022/07/06 00:16:16;;;;;;;2.30;1.20;;;15.50;94.80;;;;;;5093800;28;20257;-76
2022/07/06 00:18:42;;;;;;;2.13;1.27;;;15.50;95.00;;;;;;5089902;28;20427;-76
2022/07/06 00:21:07;;;;;;;3.90;1.90;;;15.40;95.20;;;;;;5093126;28;20429;-76
2022/07/06 00:23:33;;;;;;;3.07;1.53;;;15.30;95.30;;;;;;5094312;28;20189;-76
2022/07/06 00:25:59;;;;;;;3.93;1.63;;;15.20;95.60;;;;;;5094633;28;20389;-76
2022/07/06 00:28:25;;;;;;;3.17;1.90;;;15.20;95.80;;;;;;5098678;28;21066;-76
2022/07/06 00:30:51;;;;;;;4.63;2.00;;;15.10;96.20;;;;;;5094108;28;20550;-76
2022/07/06 00:33:17;;;;;;;2.30;1.37;;;15.10;96.40;;;;;;5093460;28;20249;-76
2022/07/06 00:35:42;;;;;;;6.10;2.50;;;15.00;96.40;;;;;;5094567;28;20467;-76
2022/07/06 00:38:08;;;;;;;5.17;2.27;;;15.00;96.60;;;;;;5093932;28;20263;-76
2022/07/06 00:40:34;;;;;;;3.57;1.70;;;15.00;96.70;;;;;;5093881;28;20192;-76
2022/07/06 00:42:59;;;;;;;6.73;1.63;;;14.90;96.90;;;;;;5093817;28;20755;-76
2022/07/06 00:45:26;;;;;;;3.90;1.63;;;14.90;96.70;;;;;;5092779;28;20185;-75
2022/07/06 00:47:51;;;;;;;4.87;2.37;;;14.80;97.00;;;;;;5093871;28;20900;-76
2022/07/06 00:50:20;;;;;;;5.40;1.30;;;14.90;97.00;;;;;;5079942;28;20442;-76
2022/07/06 00:52:50;;;;;;;3.77;2.20;;;14.90;96.80;;;;;;5087620;28;20184;-75
2022/07/06 00:55:19;;;;;;;4.40;1.63;;;14.90;96.90;;;;;;5093277;28;20776;-76
2022/07/06 00:57:45;;;;;;;4.90;1.97;;;14.90;96.90;;;;;;5093445;28;20519;-76
2022/07/06 01:00:13;;;;;;;4.23;1.83;;;14.90;96.90;;;;;;5089611;28;20920;-76
2022/07/06 01:02:39;;;;;;;8.03;2.00;;;15.00;97.10;;;;;;5096488;28;20452;-76
2022/07/06 01:05:06;;;;;;;3.07;1.87;;;15.00;97.20;;;;;;5102742;28;20947;-76
2022/07/06 01:07:33;;;;;;;3.30;1.60;;;15.00;96.70;;;;;;5093174;28;20235;-76
2022/07/06 01:09:58;;;;;;;3.10;1.40;;;15.00;96.60;;;;;;5090981;28;20427;-76
2022/07/06 01:12:24;;;;;;;3.13;1.73;;;15.00;96.50;;;;;;5085317;28;20988;-76
2022/07/06 01:14:50;;;;;;;1.97;1.17;;;15.00;95.50;;;;;;5091336;28;20177;-76
2022/07/06 01:17:17;;;;;;;3.23;1.50;;;15.20;95.30;;;;;;5092749;28;20978;-76
2022/07/06 01:19:43;;;;;;;3.30;1.53;;;15.30;94.90;;;;;;5091272;28;20234;-76
2022/07/06 01:22:09;;;;;;;6.40;2.07;;;15.30;94.90;;;;;;5091586;28;20422;-76
2022/07/06 01:24:36;;;;;;;2.93;1.17;;;15.30;94.70;;;;;;5092989;28;20520;-76
2022/07/06 01:27:05;;;;;;;3.30;1.80;;;15.30;94.60;;;;;;5092892;28;20501;-75
2022/07/06 01:29:32;;;;;;;3.43;1.40;;;15.40;95.00;;;;;;5088166;28;20477;-76
2022/07/06 01:31:58;;;;;;;2.57;1.40;;;15.30;95.10;;;;;;5091683;28;20418;-76
2022/07/06 01:34:24;;;;;;;6.10;1.20;;;15.30;94.80;;;;;;5092997;28;20457;-76
2022/07/06 01:36:50;;;;;;;3.53;1.50;;;15.20;94.90;;;;;;5092596;28;20442;-76
2022/07/06 01:39:15;;;;;;;1.90;1.03;;;15.20;95.00;;;;;;5089785;28;20187;-76
2022/07/06 01:41:41;;;;;;;3.70;1.63;;;15.20;94.60;;;;;;5089817;28;20531;-76
2022/07/06 01:44:07;;;;;;;3.00;1.07;;;15.20;94.70;;;;;;5092485;28;20180;-75
2022/07/06 01:46:34;;;;;;;6.17;1.80;;;15.10;94.60;;;;;;5092485;28;20414;-75
2022/07/06 01:49:00;;;;;;;3.00;1.70;;;15.10;94.40;;;;;;5091752;28;20493;-76
2022/07/06 01:51:26;;;;;;;3.00;1.57;;;15.20;94.30;;;;;;5089632;28;20410;-76
2022/07/06 01:53:52;;;;;;;3.20;1.17;;;15.20;94.50;;;;;;5091827;28;20450;-76
2022/07/06 01:56:19;;;;;;;2.40;1.13;;;15.10;94.50;;;;;;5092722;28;20176;-76
2022/07/06 01:58:46;;;;;;;3.23;1.53;;;15.10;94.70;;;;;;5090140;28;21053;-76
2022/07/06 02:01:14;;;;;;;2.23;1.30;;;15.10;94.50;;;;;;5092059;28;20647;-76
2022/07/06 02:03:40;;;;;;;5.17;1.37;;;15.10;94.80;;;;;;5091551;28;20426;-76
2022/07/06 02:06:06;;;;;;;4.60;1.53;;;15.00;94.70;;;;;;5091008;28;20471;-76
2022/07/06 02:08:33;;;;;;;1.80;1.10;;;15.00;94.50;;;;;;5092138;28;20474;-76
2022/07/06 02:10:59;;;;;;;2.80;1.30;;;15.00;94.90;;;;;;5102128;28;20422;-76
2022/07/06 02:13:25;;;;;;;5.83;1.20;;;15.00;94.60;;;;;;5095923;28;20433;-76
2022/07/06 02:15:51;;;;;;;7.90;1.57;;;15.00;94.80;;;;;;5091780;28;20406;-76
2022/07/06 02:18:17;;;;;;;3.50;1.40;;;15.00;94.80;;;;;;5082844;28;20471;-76
2022/07/06 02:20:43;;;;;;;5.20;1.20;;;15.00;94.60;;;;;;5103279;28;21004;-76
2022/07/06 02:23:09;;;;;;;3.80;1.90;;;15.00;94.70;;;;;;5092959;28;20251;-76
2022/07/06 02:25:35;;;;;;;4.80;1.70;;;15.00;94.50;;;;;;5092206;28;20253;-76
2022/07/06 02:28:00;;;;;;;3.20;1.27;;;15.10;94.50;;;;;;5084127;28;21810;-76
2022/07/06 02:30:26;;;;;;;4.10;1.60;;;15.00;94.40;;;;;;5092213;28;20222;-76
2022/07/06 02:32:52;;;;;;;4.83;1.13;;;15.00;94.40;;;;;;5090989;28;20685;-75
2022/07/06 02:35:17;;;;;;;4.17;1.83;;;15.00;94.40;;;;;;5091951;28;20177;-75
2022/07/06 02:37:43;;;;;;;4.47;2.13;;;15.00;94.50;;;;;;5078505;28;20239;-76
2022/07/06 02:40:09;;;;;;;4.03;1.57;;;15.00;94.40;;;;;;5104769;28;20238;-76
2022/07/06 02:42:35;;;;;;;3.73;1.20;;;15.00;94.50;;;;;;5092051;28;20204;-76
2022/07/06 02:45:01;;;;;;;4.93;1.97;;;15.00;94.40;;;;;;5079351;28;20850;-76
2022/07/06 02:47:27;;;;;;;2.67;1.20;;;15.00;94.40;;;;;;5098516;28;20192;-76
2022/07/06 02:49:53;;;;;;;2.57;1.47;;;14.90;94.60;;;;;;5096819;28;20184;-75
2022/07/06 02:52:19;;;;;;;2.47;1.67;;;14.90;94.60;;;;;;5109274;28;20197;-77
2022/07/06 02:54:45;;;;;;;10.10;1.70;;;14.90;94.60;;;;;;5123370;28;20947;-76
2022/07/06 02:57:10;;;;;;;2.50;1.23;;;14.90;94.70;;;;;;5113294;28;20438;-77
2022/07/06 02:59:36;;;;;;;3.83;1.70;;;14.90;94.60;;;;;;5124238;28;20424;-76
2022/07/06 03:02:05;;;;;;;3.30;1.40;;;14.90;94.70;;;;;;5099963;28;20207;-76
2022/07/06 03:04:31;;;;;;;3.53;1.40;;;14.80;94.90;;;;;;5105306;28;20418;-76
2022/07/06 03:06:57;;;;;;;2.30;1.33;;;14.80;94.90;;;;;;5100876;28;20483;-76
2022/07/06 03:09:23;;;;;;;3.43;1.50;;;14.80;95.00;;;;;;5103867;28;21042;-76
2022/07/06 03:11:48;;;;;;;2.77;1.40;;;14.70;95.20;;;;;;5111780;28;20212;-76
2022/07/06 03:14:14;;;;;;;2.13;1.10;;;14.70;95.30;;;;;;5085132;28;20193;-75
2022/07/06 03:16:40;;;;;;;2.73;1.60;;;14.70;95.30;;;;;;5074639;28;20626;-76
2022/07/06 03:19:06;;;;;;;4.03;2.07;;;14.60;95.40;;;;;;5089157;28;20193;-76
2022/07/06 03:21:31;;;;;;;2.97;1.43;;;14.60;95.40;;;;;;5091284;28;20376;-76
2022/07/06 03:23:57;;;;;;;8.40;1.87;;;14.60;95.50;;;;;;5091095;28;20195;-76
2022/07/06 03:26:23;;;;;;;3.50;1.80;;;14.60;95.70;;;;;;5091821;28;20196;-76
2022/07/06 03:28:48;;;;;;;4.40;1.90;;;14.50;95.90;;;;;;5091579;28;20204;-76
2022/07/06 03:31:14;;;;;;;7.63;1.80;;;14.50;96.00;;;;;;5091319;28;20192;-76
2022/07/06 03:33:40;;;;;;;5.90;1.83;;;14.50;96.10;;;;;;5083527;28;20181;-76
2022/07/06 03:36:06;;;;;;;5.00;1.70;;;14.50;96.30;;;;;;5098583;28;20171;-76
2022/07/06 03:38:31;;;;;;;2.27;1.50;;;14.50;96.20;;;;;;5108356;28;20188;-76
2022/07/06 03:40:57;;;;;;;8.00;2.20;;;14.40;96.20;;;;;;5084171;28;20830;-76
2022/07/06 03:43:23;;;;;;;5.10;2.03;;;14.30;96.50;;;;;;5093007;28;20690;-76
2022/07/06 03:45:48;;;;;;;6.20;1.80;;;14.30;96.70;;;;;;5095862;28;20208;-75
2022/07/06 03:48:14;;;;;;;3.10;1.53;;;14.30;96.90;;;;;;5111281;28;20278;-76
2022/07/06 03:50:42;;;;;;;4.70;2.33;;;14.20;96.70;;;;;;5116424;28;20783;-76
2022/07/06 03:53:08;;;;;;;5.47;2.10;;;14.20;97.20;;;;;;5099668;28;20180;-76
2022/07/06 03:55:34;;;;;;;4.10;2.03;;;14.20;97.30;;;;;;5094756;28;20873;-76
2022/07/06 03:57:59;;;;;;;5.50;2.57;;;14.10;97.80;;;;;;5103843;28;20840;-75
2022/07/06 04:00:25;;;;;;;3.83;2.30;;;14.00;97.50;;;;;;5108465;28;20226;-76
2022/07/06 04:02:51;;;;;;;2.67;1.90;;;14.00;97.80;;;;;;5074318;28;20237;-76
2022/07/06 04:05:20;;;;;;;8.10;2.00;;;14.00;98.10;;;;;;5092246;28;20188;-77
2022/07/06 04:07:48;;;;;;;4.80;2.00;;;14.00;98.10;;;;;;5105229;28;20204;-76
2022/07/06 04:10:14;;;;;;;4.13;2.30;;;13.90;98.30;;;;;;5111825;28;20521;-76
2022/07/06 04:12:44;;;;;;;6.30;1.70;;;13.90;98.40;;;;;;5102955;28;20409;-75
2022/07/06 04:15:11;;;;;;;4.43;2.37;;;13.90;98.60;;;;;;5106212;28;20477;-76
2022/07/06 04:17:52;;;;;;;6.70;2.20;;;13.90;98.50;;;;;;5099160;28;20426;-76
2022/07/06 04:20:19;;;;;;;6.67;2.30;;;13.90;98.60;;;;;;5095202;28;20448;-76
2022/07/06 04:22:44;;;;;;;3.73;1.90;;;14.00;98.70;;;;;;5098822;28;20536;-75
2022/07/06 04:25:10;;;;;;;3.83;2.17;;;14.00;98.80;;;;;;5115271;28;20875;-75
2022/07/06 04:27:36;;;;;;;4.60;1.90;;;14.10;98.80;;;;;;5097073;28;20196;-75
2022/07/06 04:30:03;;;;;;;7.40;2.30;;;14.20;98.80;;;;;;5080343;28;20173;-76
2022/07/06 04:32:29;;;;;;;3.43;2.00;;;14.30;98.70;;;;;;5094128;28;20656;-75
2022/07/06 04:34:55;;;;;;;14.63;2.47;;;14.30;98.30;;;;;;5090786;28;20411;-75
2022/07/06 04:37:20;;;;;;;6.90;2.10;;;14.40;98.50;;;;;;5083693;28;20527;-75
2022/07/06 04:39:46;;;;;;;5.90;2.07;;;14.40;98.50;;;;;;5092401;28;20615;-75
2022/07/06 04:42:11;;;;;;;8.07;1.80;;;14.50;98.40;;;;;;5089202;28;20168;-75
2022/07/06 04:44:37;;;;;;;3.60;2.10;;;14.50;98.60;;;;;;5100821;28;20638;-75
2022/07/06 04:47:03;;;;;;;5.10;2.27;;;14.50;98.70;;;;;;5094285;28;20185;-75
2022/07/06 04:49:29;;;;;;;5.50;2.70;;;14.50;98.80;;;;;;5087571;28;20197;-75
2022/07/06 04:51:54;;;;;;;3.93;2.33;;;14.50;98.90;;;;;;5096666;28;20173;-75
2022/07/06 04:54:20;;;;;;;10.20;2.63;;;14.60;98.90;;;;;;5091936;28;20218;-75
2022/07/06 04:56:46;;;;;;;7.63;2.93;;;14.60;99.10;;;;;;5092764;28;20219;-74
2022/07/06 04:59:12;;;;;;;7.67;3.10;;;14.60;99.30;;;;;;5087675;28;20172;-75
2022/07/06 05:01:38;;;;;;;4.03;2.67;;;14.60;99.40;;;;;;5092068;28;20475;-75
2022/07/06 05:04:08;;;;;;;3.30;2.60;;;14.60;99.60;;;;;;5093731;28;20414;-74
2022/07/06 05:06:34;;;;;;;4.70;2.50;;;14.60;99.60;;;;;;5092419;28;20545;-75
2022/07/06 05:08:59;;;;;;;3.90;2.80;;;14.70;99.60;;;;;;5084602;28;20551;-74
2022/07/06 05:11:26;;;;;;;5.70;2.50;;;14.70;99.60;;;;;;5099711;28;20199;-75
2022/07/06 05:13:52;;;;;;;5.77;2.87;;;14.70;99.60;;;;;;5095050;28;20177;-75
2022/07/06 05:16:18;;;;;;;4.27;2.40;;;14.70;99.90;;;;;;5098171;28;20459;-75
2022/07/06 05:18:44;;;;;;;8.37;3.30;;;14.80;99.90;;;;;;5076520;28;20426;-75
2022/07/06 05:21:09;;;;;;;8.67;4.10;;;14.80;99.90;;;;;;5092785;28;20184;-75
2022/07/06 05:23:35;;;;;;;6.03;3.00;;;14.90;99.70;;;;;;5082140;28;20225;-75
2022/07/06 05:26:01;;;;;;;4.40;2.83;;;14.90;99.90;;;;;;5079947;28;20264;-75
2022/07/06 05:28:27;;;;;;;4.40;2.60;;;15.00;99.90;;;;;;5080194;28;20204;-75
2022/07/06 05:30:53;;;;;;;5.60;2.93;;;15.00;99.90;;;;;;5077771;28;20414;-75
2022/07/06 05:33:19;;;;;;;12.03;3.00;;;15.10;99.90;;;;;;5084624;28;20425;-75
2022/07/06 05:35:45;;;;;;;4.33;2.40;;;15.10;99.90;;;;;;5077528;28;20169;-76
2022/07/06 05:38:10;;;;;;;5.57;2.87;;;15.10;99.80;;;;;;5083812;28;20635;-76
2022/07/06 05:40:36;;;;;;;4.87;2.73;;;15.10;99.90;;;;;;5093160;28;20646;-76
2022/07/06 05:43:02;;;;;;;6.80;3.13;;;15.10;99.60;;;;;;5079820;28;20188;-75
2022/07/06 05:45:28;;;;;;;4.80;2.73;;;15.10;99.50;;;;;;5089904;28;20481;-76
2022/07/06 05:50:38;;;;;;;3.77;2.40;;;15.20;99.80;;;;;;5081126;28;20249;-75
2022/07/06 05:53:05;;;;;;;5.67;2.77;;;15.30;99.50;;;;;;5091676;28;20855;-75
2022/07/06 05:55:32;;;;;;;4.77;2.47;;;15.30;99.50;;;;;;5093454;28;20209;-75
2022/07/06 05:57:57;;;;;;;5.70;2.93;;;15.30;99.30;;;;;;5094927;28;20442;-75
2022/07/06 06:00:25;;;;;;;7.93;2.60;;;15.40;99.10;;;;;;5078471;28;20539;-75
2022/07/06 06:02:51;;;;;;;4.13;2.43;;;15.40;99.40;;;;;;5084768;28;20203;-75
2022/07/06 06:05:17;;;;;;;8.00;2.53;;;15.50;99.40;;;;;;5092352;28;20457;-75
2022/07/06 06:07:46;;;;;;;17.20;3.50;;;15.50;99.40;;;;;;5092777;28;20463;-76
2022/07/06 06:10:13;;;;;;;12.70;2.73;;;15.60;98.90;;;;;;5100194;28;20410;-76
2022/07/06 06:12:39;;;;;;;5.30;2.73;;;15.60;98.90;;;;;;5081973;28;20889;-76
2022/07/06 06:15:06;;;;;;;6.27;2.97;;;15.70;99.00;;;;;;5092587;28;20468;-75
2022/07/06 06:17:32;;;;;;;8.23;3.47;;;15.70;98.70;;;;;;5094547;28;20423;-75
2022/07/06 06:19:59;;;;;;;5.23;2.50;;;15.70;99.10;;;;;;5092409;28;20423;-76
2022/07/06 06:22:25;;;;;;;12.10;3.13;;;15.80;98.80;;;;;;5082756;28;20426;-75
2022/07/06 06:24:51;;;;;;;3.43;1.80;;;15.90;98.70;;;;;;5087974;28;20427;-76
2022/07/06 06:27:17;;;;;;;6.63;2.50;;;15.90;98.40;;;;;;5099718;28;20232;-75
2022/07/06 06:29:44;;;;;;;6.10;2.83;;;16.00;98.30;;;;;;5100684;28;20432;-76
2022/07/06 06:32:11;;;;;;;5.40;2.77;;;16.00;98.50;;;;;;5088906;28;20410;-76
2022/07/06 06:34:37;;;;;;;4.80;2.20;;;16.10;98.30;;;;;;5100280;28;20403;-76
2022/07/06 06:37:03;;;;;;;7.73;2.17;;;16.10;98.30;;;;;;5111522;28;20427;-76
2022/07/06 06:39:29;;;;;;;6.47;3.07;;;16.10;97.90;;;;;;5103335;28;20486;-76
2022/07/06 06:41:55;;;;;;;3.60;2.07;;;16.20;98.30;;;;;;5108945;28;20173;-76
2022/07/06 06:44:23;;;;;;;3.30;2.20;;;16.40;98.20;;;;;;5109353;28;20441;-77
2022/07/06 06:46:49;;;;;;;6.00;2.03;;;16.40;97.70;;;;;;5104253;28;20235;-77
2022/07/06 06:49:14;;;;;;;4.40;2.17;;;16.50;97.40;;;;;;5119136;28;20457;-76
2022/07/06 06:51:40;;;;;;;3.97;2.37;;;16.60;96.70;;;;;;5118947;28;20421;-76
2022/07/06 06:54:06;;;;;;;12.33;2.00;;;16.70;96.50;;;;;;5118491;28;20183;-76
2022/07/06 06:56:32;;;;;;;5.23;1.73;;;16.80;96.30;;;;;;5114018;28;20614;-77
2022/07/06 06:58:57;;;;;;;3.37;2.30;;;16.80;96.00;;;;;;5120481;28;20179;-76
2022/07/06 07:01:23;;;;;;;2.30;1.40;;;17.10;96.30;;;;;;5096473;28;20168;-77
2022/07/06 07:03:51;;;;;;;4.37;1.77;;;17.20;95.90;;;;;;5102278;28;20176;-76
2022/07/06 07:06:17;;;;;;;3.50;2.40;;;17.40;95.50;;;;;;5087698;28;20242;-76
2022/07/06 07:08:42;;;;;;;3.70;2.00;;;17.50;95.00;;;;;;5087176;28;20465;-76
2022/07/06 07:11:08;;;;;;;6.53;1.90;;;17.50;94.90;;;;;;5083746;28;20188;-75
2022/07/06 07:13:34;;;;;;;5.40;2.40;;;17.60;94.80;;;;;;5072597;28;20197;-76
2022/07/06 07:15:59;;;;;;;4.60;2.33;;;17.70;94.90;;;;;;5084114;28;20211;-76
2022/07/06 07:18:25;;;;;;;5.07;1.90;;;18.00;94.70;;;;;;5090188;28;20220;-77
2022/07/06 07:20:51;;;;;;;3.30;2.03;;;18.10;93.90;;;;;;5090986;28;20236;-77
2022/07/06 07:23:16;;;;;;;4.73;1.80;;;18.20;93.70;;;;;;5093137;28;20192;-77
2022/07/06 07:25:42;;;;;;;2.10;1.30;;;18.30;93.50;;;;;;5080025;28;20193;-78
2022/07/06 07:28:08;;;;;;;2.63;1.53;;;18.40;93.50;;;;;;5089917;28;20204;-78
2022/07/06 07:30:34;;;;;;;3.70;1.90;;;18.90;93.70;;;;;;5081892;28;20297;-78
2022/07/06 07:33:00;;;;;;;3.70;1.97;;;19.30;92.10;;;;;;5087679;28;20219;-77
2022/07/06 07:35:27;;;;;;;4.00;1.80;;;19.70;91.30;;;;;;5087170;28;20176;-76
2022/07/06 07:37:52;;;;;;;3.50;1.60;;;19.70;91.30;;;;;;5090793;28;20426;-76
2022/07/06 07:40:18;;;;;;;2.33;1.57;;;19.80;91.30;;;;;;5078339;28;20463;-76
2022/07/06 07:42:45;;;;;;;5.80;2.00;;;20.10;91.10;;;;;;5085328;28;20233;-77
2022/07/06 07:45:11;;;;;;;2.87;1.67;;;20.70;90.00;;;;;;5082834;28;20187;-77
2022/07/06 07:47:36;;;;;;;3.60;1.73;;;21.40;89.10;;;;;;5074968;28;20470;-77
2022/07/06 07:50:02;;;;;;;4.30;2.00;;;22.30;85.90;;;;;;5084171;28;20427;-77
2022/07/06 07:52:28;;;;;;;2.93;1.40;;;23.40;81.10;;;;;;5081235;28;20172;-78
2022/07/06 07:54:54;;;;;;;3.50;1.63;;;24.10;79.20;;;;;;5086501;28;20919;-78
2022/07/06 07:57:19;;;;;;;3.77;1.87;;;23.90;77.50;;;;;;5084655;28;20315;-78
2022/07/06 07:59:45;;;;;;;2.73;1.60;;;24.30;75.60;;;;;;5085191;28;20164;-78
2022/07/06 08:02:11;;;;;;;3.40;2.03;;;24.80;74.50;;;;;;5084108;28;20179;-77
2022/07/06 08:04:36;;;;;;;5.85;2.15;;;25.50;72.10;;;;;;5084919;28;20180;-77
2022/07/06 08:07:02;;;;;;;9.55;1.45;;;26.10;69.50;;;;;;5081184;28;20540;-78
2022/07/06 08:09:28;;;;;;;4.32;1.58;;;25.40;71.70;;;;;;5081944;28;20519;-77
2022/07/06 08:11:54;;;;;;;3.08;1.50;;;25.50;71.00;;;;;;5077425;28;20187;-78
2022/07/06 08:14:19;;;;;;;6.50;1.83;;;26.20;68.30;;;;;;5081616;28;20619;-78
2022/07/06 08:16:45;;;;;;;2.90;2.00;;;26.90;66.10;;;;;;5086153;28;20180;-77
2022/07/06 08:19:14;;;;;;;3.45;1.67;;;26.40;68.00;;;;;;5077765;28;20180;-77
2022/07/06 08:21:40;;;;;;;3.58;1.98;;;26.10;68.90;;;;;;5088443;28;20199;-77
2022/07/06 08:24:06;;;;;;;3.45;1.75;;;25.90;68.90;;;;;;5080324;28;20621;-77
2022/07/06 08:26:32;;;;;;;5.72;1.85;;;25.70;70.40;;;;;;5086102;28;20208;-77
2022/07/06 08:28:58;;;;;;;5.82;1.40;;;26.00;68.80;;;;;;5094247;28;20209;-77
2022/07/06 08:31:23;;;;;;;2.95;1.77;;;26.00;67.50;;;;;;5092861;28;20187;-77
2022/07/06 08:33:49;;;;;;;8.20;1.95;;;26.30;66.50;;;;;;5082306;28;20598;-77
2022/07/06 08:36:15;;;;;;;3.78;1.48;;;26.20;68.30;;;;;;5091620;28;20180;-77
2022/07/06 08:38:40;;;;;;;2.40;1.60;;;26.80;65.70;;;;;;5092065;28;20172;-78
2022/07/06 08:41:06;;;;;;;2.92;1.65;;;26.80;65.60;;;;;;5088658;28;20233;-78
2022/07/06 08:43:33;;;;;;;2.70;1.50;;;26.30;68.70;;;;;;5087047;28;20199;-79
2022/07/06 08:45:59;;;;;;;3.65;1.65;;;26.70;67.80;;;;;;5088228;28;20215;-78
2022/07/06 08:48:31;;;;;;;4.13;2.00;;;27.10;65.00;;;;;;5089632;28;20678;-78
2022/07/06 08:50:58;;;;;;;2.67;1.45;;;26.90;65.50;;;;;;5086696;28;20176;-79
2022/07/06 08:53:24;;;;;;;3.83;1.83;;;26.60;63.70;;;;;;5088531;28;20172;-79
2022/07/06 08:55:50;;;;;;;4.93;1.52;;;26.60;65.00;;;;;;5080239;28;20187;-78
2022/07/06 08:58:16;;;;;;;9.38;1.88;;;26.50;65.10;;;;;;5085712;28;20210;-78
2022/07/06 09:00:42;;;;;;;2.63;1.40;;;26.60;64.00;;;;;;5088301;28;20179;-79
2022/07/06 09:03:12;;;;;;;5.97;1.70;;;26.20;67.80;;;;;;5087236;28;20188;-78
2022/07/06 09:05:40;;;;;;;8.07;2.17;;;26.40;67.10;;;;;;5087126;28;20181;-80
2022/07/06 09:08:06;;;;;;;4.05;1.20;;;26.70;64.70;;;;;;5092110;28;20205;-79
2022/07/06 09:10:31;;;;;;;4.43;1.55;;;26.70;66.30;;;;;;5096367;28;20200;-79
2022/07/06 09:13:07;;;;;;;4.88;1.92;;;26.80;65.90;;;;;;5099183;28;20203;-79
2022/07/06 09:15:34;;;;;;;3.47;1.73;;;26.70;67.30;;;;;;5090943;28;20175;-77
2022/07/06 09:18:00;;;;;;;4.03;1.77;;;26.90;64.70;;;;;;5090703;28;20243;-79
2022/07/06 09:20:26;;;;;;;4.28;1.00;;;27.00;66.80;;;;;;5094113;28;20217;-80
2022/07/06 09:22:59;;;;;;;8.13;1.40;;;26.90;63.20;;;;;;5092194;28;20202;-79
2022/07/06 09:25:26;;;;;;;8.40;2.30;;;26.90;63.50;;;;;;5083621;28;20283;-79
2022/07/06 09:27:54;;;;;;;2.58;1.40;;;26.70;64.80;;;;;;5087183;28;20203;-79
2022/07/06 09:30:21;;;;;;;3.03;1.30;;;27.00;61.00;;;;;;5093091;28;20176;-78
2022/07/06 09:32:50;;;;;;;4.88;2.03;;;26.80;64.10;;;;;;5085359;28;20176;-78
2022/07/06 09:35:28;;;;;;;3.38;1.55;;;26.70;61.80;;;;;;5080036;28;20698;-77
2022/07/06 09:38:03;;;;;;;4.05;1.58;;;26.60;62.50;;;;;;5082182;28;20184;-78
2022/07/06 09:40:36;;;;;;;3.35;1.42;;;26.40;62.90;;;;;;5079786;28;20271;-78
2022/07/06 09:43:31;;;;;;;5.38;1.60;;;26.20;65.30;;;;;;5089822;28;20190;-78
2022/07/06 09:45:57;;;;;;;6.05;1.38;;;26.10;64.30;;;;;;5075257;28;20463;-78
2022/07/06 09:48:24;;;;;;;3.20;1.73;;;26.20;66.70;;;;;;5086508;28;20206;-77
2022/07/06 09:50:59;;;;;;;6.57;1.33;;;25.90;64.30;;;;;;5083930;28;20288;-78
2022/07/06 09:53:26;;;;;;;2.78;1.58;;;25.80;64.90;;;;;;5082561;28;20249;-78
2022/07/06 09:55:54;;;;;;;13.30;2.03;;;25.70;66.50;;;;;;5082333;28;20173;-78
2022/07/06 09:58:21;;;;;;;3.03;1.40;;;25.70;63.00;;;;;;5080622;28;20285;-78
2022/07/06 10:00:47;;;;;;;4.45;1.67;;;25.80;65.10;;;;;;5087900;28;20184;-78
2022/07/06 10:03:15;;;;;;;4.03;1.85;;;25.80;65.80;;;;;;5084920;28;20530;-78
2022/07/06 10:05:46;;;;;;;3.08;1.70;;;25.90;66.00;;;;;;5087978;28;20172;-78
2022/07/06 10:08:14;;;;;;;3.60;1.77;;;25.60;67.30;;;;;;5088350;28;20195;-78
2022/07/06 10:10:41;;;;;;;7.75;1.40;;;25.80;67.40;;;;;;5085555;28;20177;-78
2022/07/06 10:13:08;;;;;;;3.65;1.73;;;25.70;68.50;;;;;;5088300;28;20244;-79
2022/07/06 10:15:36;;;;;;;2.70;1.50;;;24.90;67.60;;;;;;5089922;28;20291;-78
2022/07/06 10:18:07;;;;;;;2.37;1.47;;;24.50;67.90;;;;;;5100153;28;20519;-78
2022/07/06 10:20:37;;;;;;;2.70;1.53;;;24.10;70.70;;;;;;5085688;27;20180;-78
2022/07/06 10:23:04;;;;;;;5.37;1.40;;;23.80;71.20;;;;;;5096470;28;21061;-78
2022/07/06 10:25:32;;;;;;;4.03;1.53;;;23.80;71.50;;;;;;5082428;28;20441;-78
2022/07/06 10:27:59;;;;;;;18.13;2.40;;;23.70;72.50;;;;;;5080655;28;20951;-77
2022/07/06 10:30:25;;;;;;;2.80;1.50;;;23.80;71.10;;;;;;5084690;28;20455;-78
2022/07/06 10:32:51;;;;;;;3.87;1.83;;;24.10;74.40;;;;;;5078958;28;20422;-77
2022/07/06 10:35:20;;;;;;;11.53;1.43;;;24.40;73.30;;;;;;5087374;28;20505;-78
2022/07/06 10:38:09;;;;;;;3.97;1.47;;;24.60;71.10;;;;;;5075003;28;20450;-78
2022/07/06 10:43:22;;;;;;;4.20;1.50;;;24.00;74.30;;;;;;5086868;28;20770;-78
2022/07/06 10:45:48;;;;;;;8.03;1.50;;;24.20;70.00;;;;;;5090525;28;20405;-78
2022/07/06 10:48:17;;;;;;;2.10;1.23;;;23.80;73.80;;;;;;5102989;27;20219;-78
2022/07/06 10:50:45;;;;;;;3.63;1.70;;;23.90;74.60;;;;;;5083252;28;20488;-78
2022/07/06 10:53:12;;;;;;;4.70;2.00;;;24.00;72.10;;;;;;5081302;28;20471;-78
2022/07/06 10:55:39;;;;;;;13.60;2.23;;;23.80;71.40;;;;;;5080290;28;20497;-77
2022/07/06 10:58:06;;;;;;;53.93;2.70;;;23.60;74.50;;;;;;5080728;28;20446;-78
2022/07/06 11:00:51;;;;;;;3.70;1.97;;;23.80;75.10;;;;;;5078191;28;20429;-78
2022/07/06 11:03:46;;;;;;;3.37;1.70;;;23.90;73.10;;;;;;5083712;28;20417;-78
2022/07/06 11:06:21;;;;;;;3.87;1.47;;;24.10;74.80;;;;;;5088066;28;20406;-78
2022/07/06 11:08:50;;;;;;;2.40;1.30;;;24.40;74.30;;;;;;5080790;28;20949;-78
2022/07/06 11:11:20;;;;;;;4.87;2.03;;;24.60;71.50;;;;;;5079307;28;20509;-78
2022/07/06 11:13:52;;;;;;;5.20;2.00;;;24.40;72.30;;;;;;5074565;28;20411;-77
2022/07/06 11:16:19;;;;;;;9.10;2.07;;;24.00;73.70;;;;;;5077301;28;20897;-78
2022/07/06 11:18:59;;;;;;;2.70;1.53;;;23.80;73.70;;;;;;5077738;28;20407;-78
2022/07/06 11:21:34;;;;;;;10.23;2.00;;;23.50;75.80;;;;;;5080367;28;20426;-78
2022/07/06 11:23:59;;;;;;;5.40;1.93;;;23.50;74.80;;;;;;5079224;28;20432;-77
2022/07/06 11:26:26;;;;;;;4.47;1.97;;;23.50;74.30;;;;;;5086126;28;20417;-76
2022/07/06 11:28:53;;;;;;;3.90;2.33;;;23.50;73.80;;;;;;5081658;28;20547;-77
2022/07/06 11:31:19;;;;;;;3.40;1.70;;;23.50;73.80;;;;;;5091727;28;20413;-77
2022/07/06 11:33:46;;;;;;;5.57;2.60;;;23.70;74.60;;;;;;5084033;28;20415;-77
2022/07/06 11:36:20;;;;;;;5.20;2.00;;;23.80;73.10;;;;;;5080443;28;20187;-77
2022/07/06 11:38:47;;;;;;;7.13;2.20;;;23.60;74.60;;;;;;5086141;28;20421;-77
2022/07/06 11:41:14;;;;;;;12.63;2.33;;;23.40;74.30;;;;;;5086535;28;20418;-76
2022/07/06 11:43:45;;;;;;;6.13;2.60;;;23.30;77.30;;;;;;5080492;28;20430;-77
2022/07/06 11:46:27;;;;;;;4.97;2.23;;;23.20;76.10;;;;;;5085910;28;20892;-77
2022/07/06 11:48:57;;;;;;;5.93;2.00;;;23.40;76.00;;;;;;5087847;28;20979;-76
2022/07/06 11:51:31;;;;;;;3.50;1.93;;;23.70;74.30;;;;;;5078703;28;20420;-77
2022/07/06 11:54:02;;;;;;;9.13;2.23;;;23.90;75.20;;;;;;5078951;28;20496;-76
2022/07/06 11:56:30;;;;;;;3.47;1.80;;;23.70;75.90;;;;;;5098167;28;20418;-78
2022/07/06 11:58:58;;;;;;;3.80;1.80;;;24.00;74.30;;;;;;5079012;28;20421;-77
2022/07/06 12:01:26;;;;;;;2.70;1.73;;;23.60;75.20;;;;;;5077986;28;20445;-77
2022/07/06 12:03:53;;;;;;;2.90;1.63;;;23.60;75.70;;;;;;5095112;28;20418;-76
2022/07/06 12:06:21;;;;;;;5.20;1.93;;;23.70;75.30;;;;;;5095404;28;20872;-77
2022/07/06 12:08:52;;;;;;;4.53;2.27;;;23.80;75.40;;;;;;5088304;28;20458;-76
2022/07/06 12:11:26;;;;;;;2.50;1.50;;;23.90;75.70;;;;;;5090227;28;20960;-77
2022/07/06 12:13:55;;;;;;;3.47;1.53;;;24.20;73.60;;;;;;5085316;28;20402;-77
2022/07/06 12:16:23;;;;;;;4.40;2.10;;;24.20;75.20;;;;;;5098977;28;20493;-78
2022/07/06 12:18:49;;;;;;;3.00;1.47;;;24.10;76.20;;;;;;5094308;28;20845;-76
2022/07/06 12:21:21;;;;;;;7.50;1.93;;;24.10;75.10;;;;;;5099733;28;20428;-76
2022/07/06 12:23:49;;;;;;;7.07;2.07;;;24.00;76.70;;;;;;5090091;27;20500;-76
2022/07/06 12:26:17;;;;;;;3.47;1.50;;;24.10;74.20;;;;;;5082510;28;20425;-77
2022/07/06 12:28:43;;;;;;;3.93;2.20;;;23.80;75.30;;;;;;5088625;28;20846;-77
2022/07/06 12:31:10;;;;;;;8.13;2.20;;;23.60;74.60;;;;;;5086007;28;20485;-77
2022/07/06 12:33:36;;;;;;;6.83;2.40;;;23.60;77.10;;;;;;5088734;28;20443;-77
2022/07/06 12:36:10;;;;;;;15.77;2.30;;;23.60;76.70;;;;;;5088034;28;21165;-77
2022/07/06 12:38:42;;;;;;;6.93;1.80;;;23.60;76.20;;;;;;5087460;28;20442;-76
2022/07/06 12:41:08;;;;;;;8.30;2.10;;;23.80;75.00;;;;;;5092130;28;20421;-77
2022/07/06 12:43:41;;;;;;;2.60;1.50;;;24.00;74.60;;;;;;5093930;28;20478;-77
2022/07/06 12:46:31;;;;;;;4.27;1.73;;;24.20;75.60;;;;;;5080493;28;20220;-77
2022/07/06 12:48:58;;;;;;;5.30;1.60;;;24.10;74.50;;;;;;5082635;28;20465;-78
2022/07/06 12:51:25;;;;;;;4.33;2.30;;;23.90;75.20;;;;;;5082071;28;20410;-77